createdAt,value
2018-07-24T09:24:56.035Z,28.15
2018-07-24T09:27:26.010Z,28.20
2018-07-24T09:29:59.794Z,28.67
2018-07-24T09:32:29.747Z,28.58
2018-07-24T09:35:00.937Z,29.04
2018-07-24T09:37:32.555Z,29.12
2018-07-24T09:40:02.420Z,29.19
2018-07-24T09:42:32.478Z,29.11
2018-07-24T09:45:06.328Z,29.16
2018-07-24T09:47:36.332Z,29.11
2018-07-24T09:50:08.684Z,29.12
2018-07-24T09:52:39.090Z,29.54
2018-07-24T09:55:09.209Z,29.16
2018-07-24T09:57:39.211Z,29.01
2018-07-24T10:00:09.849Z,29.08
2018-07-24T10:02:41.076Z,28.91
2018-07-24T10:05:15.331Z,29.25
2018-07-24T10:07:46.140Z,28.77
2018-07-24T10:10:16.135Z,28.95
2018-07-24T10:12:47.331Z,29.05
2018-07-24T10:15:19.257Z,29.46
2018-07-24T10:17:50.899Z,29.21
2018-07-24T10:20:20.789Z,29.29
2018-07-24T10:22:51.342Z,29.28
2018-07-24T10:25:22.588Z,28.85
2018-07-24T10:27:58.533Z,29.33
2018-07-24T10:30:32.090Z,29.35
2018-07-24T10:33:02.202Z,29.46
2018-07-24T10:35:33.093Z,29.27
2018-07-24T10:38:03.212Z,29.12
2018-07-24T10:40:35.258Z,29.39
2018-07-24T10:43:09.838Z,29.37
2018-07-24T10:45:39.932Z,29.36
2018-07-24T10:48:09.809Z,29.59
2018-07-24T10:50:39.891Z,29.76
2018-07-24T10:53:10.747Z,29.60
2018-07-24T10:55:41.895Z,29.55
2018-07-24T10:58:12.971Z,29.55
2018-07-24T11:00:42.781Z,29.36
2018-07-24T11:03:13.132Z,29.44
2018-07-24T11:05:43.152Z,29.69
2018-07-24T11:08:13.044Z,29.53
2018-07-24T11:10:43.017Z,29.73
2018-07-24T11:13:16.868Z,29.25
2018-07-24T11:15:49.465Z,29.44
2018-07-24T11:18:23.399Z,29.59
2018-07-24T11:20:54.193Z,29.44
2018-07-24T11:23:24.849Z,29.41
2018-07-24T11:25:54.700Z,29.60
2018-07-24T11:28:24.824Z,29.58
2018-07-24T11:30:59.243Z,29.61
2018-07-24T11:33:31.888Z,29.64
2018-07-24T11:36:04.952Z,29.63
2018-07-24T11:38:35.158Z,29.65
2018-07-24T11:41:05.123Z,29.65
2018-07-24T11:43:35.624Z,29.51
2018-07-24T11:46:06.239Z,29.34
2018-07-24T11:48:39.290Z,29.35
2018-07-24T11:51:11.293Z,29.37
2018-07-24T11:53:41.386Z,29.54
2018-07-24T11:56:15.189Z,29.61
2018-07-24T11:58:45.799Z,29.63
2018-07-24T12:01:17.274Z,29.64
2018-07-24T12:03:48.222Z,29.93
2018-07-24T12:06:20.741Z,30.11
2018-07-24T12:08:50.925Z,30.19
2018-07-24T12:11:20.514Z,29.81
2018-07-24T12:13:50.242Z,29.79
2018-07-24T12:16:20.188Z,29.73
2018-07-24T12:18:55.488Z,29.96
2018-07-24T12:21:25.580Z,30.11
2018-07-24T12:23:55.189Z,30.37
2018-07-24T12:26:26.925Z,30.37
2018-07-24T12:28:58.069Z,30.36
2018-07-24T12:31:28.928Z,30.48
2018-07-24T12:34:02.239Z,30.52
2018-07-24T12:36:31.838Z,30.41
2018-07-24T12:39:01.839Z,30.23
2018-07-24T12:41:32.065Z,30.41
2018-07-24T12:44:07.723Z,30.61
2018-07-24T12:46:37.797Z,30.59
2018-07-24T12:49:08.948Z,30.69
2018-07-24T12:51:39.873Z,30.71
2018-07-24T12:54:09.861Z,30.69
2018-07-24T12:56:41.718Z,30.86
2018-07-24T12:59:11.959Z,30.62
2018-07-24T13:01:42.244Z,30.40
2018-07-24T13:04:16.777Z,30.26
2018-07-24T13:06:47.255Z,30.04
2018-07-24T13:09:18.733Z,30.19
2018-07-24T13:11:53.722Z,30.14
2018-07-24T13:14:24.232Z,30.26
2018-07-24T13:16:55.481Z,30.20
2018-07-24T13:19:26.532Z,30.19
2018-07-24T13:21:59.065Z,30.29
2018-07-24T13:24:31.312Z,30.04
2018-07-24T13:27:01.083Z,29.88
2018-07-24T13:29:31.292Z,29.84
2018-07-24T13:32:04.044Z,29.78
2018-07-24T13:34:37.270Z,29.95
2018-07-24T13:37:19.327Z,29.98
2018-07-24T13:39:54.865Z,29.91
2018-07-24T13:42:27.094Z,30.04
2018-07-24T13:45:00.105Z,30.22
2018-07-24T13:47:30.262Z,30.21
2018-07-24T13:50:02.022Z,30.21
2018-07-24T13:52:35.067Z,30.17
2018-07-24T13:55:05.210Z,30.14
2018-07-24T13:57:35.308Z,29.98
2018-07-24T14:00:10.630Z,29.87
2018-07-24T14:02:45.195Z,29.54
2018-07-24T14:05:19.502Z,29.35
2018-07-24T14:07:51.587Z,29.20
2018-07-24T14:10:22.079Z,29.16
2018-07-24T14:12:53.519Z,29.29
2018-07-24T14:15:24.324Z,29.23
2018-07-24T14:17:54.530Z,29.13
2018-07-24T14:20:24.671Z,29.02
2018-07-24T14:22:55.062Z,28.85
2018-07-24T14:25:25.130Z,28.94
2018-07-24T14:27:57.521Z,29.10
2018-07-24T14:30:32.470Z,29.19
2018-07-24T14:33:04.364Z,29.15
2018-07-24T14:35:35.934Z,29.12
2018-07-24T14:38:09.306Z,29.02
2018-07-24T14:40:41.903Z,28.95
2018-07-24T14:43:12.146Z,28.78
2018-07-24T14:45:42.220Z,28.67
2018-07-24T14:48:12.351Z,28.84
2018-07-24T14:50:42.531Z,28.97
2018-07-24T14:53:13.553Z,28.98
2018-07-24T14:55:44.308Z,28.83
2018-07-24T14:58:14.841Z,28.76
2018-07-24T15:00:45.191Z,28.67
2018-07-24T15:03:15.258Z,28.66
2018-07-24T15:05:45.686Z,28.73
2018-07-24T15:08:19.307Z,28.79
2018-07-24T15:10:53.266Z,28.87
2018-07-24T15:13:26.878Z,28.89
2018-07-24T15:15:59.398Z,28.99
2018-07-24T15:18:29.432Z,29.05
2018-07-24T15:21:03.248Z,29.17
2018-07-24T15:23:34.403Z,29.29
2018-07-24T15:26:07.054Z,29.30
2018-07-24T15:28:40.072Z,29.26
2018-07-24T15:31:11.236Z,29.37
2018-07-24T15:33:42.458Z,29.24
2018-07-24T15:36:12.860Z,29.18
2018-07-24T15:38:42.875Z,29.31
2018-07-24T15:41:17.264Z,29.30
2018-07-24T15:43:47.259Z,29.19
2018-07-24T15:46:17.199Z,29.29
2018-07-24T15:48:48.191Z,29.52
2018-07-24T15:51:17.982Z,29.53
2018-07-24T15:53:48.956Z,29.36
2018-07-24T15:56:24.911Z,29.41
2018-07-24T15:58:55.097Z,29.19
2018-07-24T16:01:26.114Z,29.25
2018-07-24T16:03:58.608Z,29.39
2018-07-24T16:06:30.370Z,29.38
2018-07-24T16:09:02.278Z,29.31
2018-07-24T16:11:33.301Z,29.40
2018-07-24T16:14:04.303Z,29.40
2018-07-24T16:16:36.000Z,29.38
2018-07-24T16:19:06.631Z,29.26
2018-07-24T16:21:38.796Z,29.37
2018-07-24T16:24:09.078Z,29.27
2018-07-24T16:26:39.146Z,29.16
2018-07-24T16:29:09.361Z,29.13
2018-07-24T16:31:39.970Z,29.16
2018-07-24T16:34:10.189Z,28.97
2018-07-24T16:36:40.511Z,28.99
2018-07-24T16:39:12.281Z,28.86
2018-07-24T16:41:43.321Z,29.00
2018-07-24T16:44:13.312Z,28.99
2018-07-24T16:46:44.577Z,28.93
2018-07-24T16:49:15.129Z,28.95
2018-07-24T16:51:45.401Z,28.95
2018-07-24T16:54:15.541Z,29.05
2018-07-24T16:56:46.092Z,29.08
2018-07-24T16:59:16.411Z,29.05
2018-07-24T17:01:46.444Z,28.97
2018-07-24T17:04:17.636Z,29.02
2018-07-24T17:06:47.794Z,28.96
2018-07-24T17:09:17.873Z,28.91
2018-07-24T17:11:47.787Z,28.85
2018-07-24T17:14:18.624Z,28.90
2018-07-24T17:16:52.265Z,28.87
2018-07-24T17:19:22.568Z,28.83
2018-07-24T17:21:53.274Z,29.05
2018-07-24T17:24:23.334Z,29.16
2018-07-24T17:26:53.164Z,29.12
2018-07-24T17:29:23.177Z,29.16
2018-07-24T17:31:53.360Z,29.08
2018-07-24T17:34:23.389Z,28.93
2018-07-24T17:36:53.388Z,28.85
2018-07-24T17:39:23.337Z,28.91
2018-07-24T17:41:53.362Z,29.09
2018-07-24T17:44:23.989Z,29.15
2018-07-24T17:46:53.782Z,29.22
2018-07-24T17:49:23.670Z,29.18
2018-07-24T17:51:54.151Z,29.10
2018-07-24T17:54:24.597Z,29.18
2018-07-24T17:56:54.653Z,29.31
2018-07-24T17:59:24.529Z,29.15
2018-07-24T18:01:54.264Z,29.13
2018-07-24T18:04:24.660Z,28.86
2018-07-24T18:06:54.980Z,28.87
2018-07-24T18:09:25.121Z,28.60
2018-07-24T18:11:55.591Z,28.65
2018-07-24T18:14:26.678Z,28.62
2018-07-24T18:16:56.595Z,28.43
2018-07-24T18:19:27.329Z,28.31
2018-07-24T18:21:57.456Z,28.36
2018-07-24T18:24:27.665Z,28.19
2018-07-24T18:26:57.555Z,28.17
2018-07-24T18:29:27.645Z,28.08
2018-07-24T18:31:57.557Z,28.07
2018-07-24T18:34:28.244Z,28.13
2018-07-24T18:36:59.378Z,28.21
2018-07-24T18:39:31.364Z,28.28
2018-07-24T18:42:02.534Z,28.33
2018-07-24T18:44:32.653Z,28.24
2018-07-24T18:47:03.041Z,28.27
2018-07-24T18:49:34.276Z,28.22
2018-07-24T18:52:04.230Z,28.27
2018-07-24T18:54:36.019Z,28.32
2018-07-24T18:57:07.018Z,28.24
2018-07-24T18:59:45.624Z,28.24
2018-07-24T19:02:15.555Z,28.18
2018-07-24T19:04:45.302Z,28.15
2018-07-24T19:07:15.707Z,28.07
2018-07-24T19:09:45.915Z,28.06
2018-07-24T19:12:16.224Z,27.87
2018-07-24T19:14:47.368Z,27.79
2018-07-24T19:17:19.365Z,27.74
2018-07-24T19:19:50.614Z,27.66
2018-07-24T19:22:24.030Z,27.64
2018-07-24T19:24:55.170Z,27.58
2018-07-24T19:27:25.374Z,27.56
2018-07-24T19:29:55.951Z,27.53
2018-07-24T19:32:26.547Z,27.53
2018-07-24T19:34:57.965Z,27.52
2018-07-24T19:37:32.201Z,27.54
2018-07-24T19:40:02.954Z,27.57
2018-07-24T19:42:34.367Z,27.58
2018-07-24T19:45:04.730Z,27.50
2018-07-24T19:47:35.783Z,27.52
2018-07-24T19:50:06.612Z,27.45
2018-07-24T19:52:36.994Z,27.33
2018-07-24T19:55:07.268Z,27.26
2018-07-24T19:57:44.648Z,27.34
2018-07-24T20:00:17.315Z,27.38
2018-07-24T20:02:48.694Z,27.52
2018-07-24T20:05:19.500Z,27.46
2018-07-24T20:07:50.568Z,27.14
2018-07-24T20:10:21.981Z,26.85
2018-07-24T20:12:52.811Z,26.69
2018-07-24T20:15:23.378Z,26.55
2018-07-24T20:17:53.863Z,26.46
2018-07-24T20:20:25.856Z,26.40
2018-07-24T20:22:57.793Z,26.37
2018-07-24T20:25:28.681Z,26.36
2018-07-24T20:28:12.466Z,26.29
2018-07-24T20:30:57.042Z,26.26
2018-07-24T20:33:30.468Z,26.33
2018-07-24T20:36:09.655Z,26.19
2018-07-24T20:38:41.695Z,26.06
2018-07-24T20:44:30.975Z,25.93
2018-07-24T20:47:06.121Z,25.93
2018-07-24T20:49:37.945Z,25.96
2018-07-24T20:52:09.845Z,25.90
2018-07-24T20:54:40.982Z,25.84
2018-07-24T20:57:13.322Z,25.85
2018-07-24T20:59:43.497Z,25.78
2018-07-24T21:02:16.358Z,25.86
2018-07-24T21:04:47.292Z,25.86
2018-07-24T21:07:19.406Z,25.93
2018-07-24T21:10:00.331Z,25.83
2018-07-24T21:12:34.090Z,25.81
2018-07-24T21:15:06.032Z,25.91
2018-07-24T21:17:39.219Z,25.78
2018-07-24T21:20:12.569Z,25.81
2018-07-24T21:25:32.307Z,25.92
2018-07-24T21:28:02.782Z,25.86
2018-07-24T21:30:33.016Z,25.83
2018-07-24T21:33:03.245Z,25.74
2018-07-24T21:35:33.554Z,25.73
2018-07-24T21:38:03.781Z,25.59
2018-07-24T21:40:34.226Z,25.46
2018-07-24T21:43:05.365Z,25.51
2018-07-24T21:45:35.809Z,25.50
2018-07-24T21:48:08.414Z,25.55
2018-07-24T21:50:38.989Z,25.54
2018-07-24T21:53:10.602Z,25.49
2018-07-24T21:55:41.091Z,25.48
2018-07-24T21:58:11.547Z,25.49
2018-07-24T22:00:42.665Z,25.56
2018-07-24T22:03:13.697Z,25.52
2018-07-24T22:05:44.514Z,25.48
2018-07-24T22:08:15.938Z,25.36
2018-07-24T22:10:46.123Z,25.32
2018-07-24T22:13:16.297Z,25.19
2018-07-24T22:15:47.095Z,25.24
2018-07-24T22:18:17.346Z,25.29
2018-07-24T22:20:47.848Z,25.26
2018-07-24T22:23:18.423Z,25.26
2018-07-24T22:25:48.584Z,25.25
2018-07-24T22:28:19.245Z,25.24
2018-07-24T22:30:49.686Z,25.12
2018-07-24T22:33:20.489Z,25.08
2018-07-24T22:35:52.020Z,25.07
2018-07-24T22:38:22.661Z,25.01
2018-07-24T22:40:54.142Z,24.89
2018-07-24T22:43:24.659Z,24.82
2018-07-24T22:45:54.811Z,24.91
2018-07-24T22:49:49.614Z,24.93
2018-07-24T22:52:20.826Z,24.95
2018-07-24T22:54:52.032Z,24.98
2018-07-24T22:57:23.390Z,24.99
2018-07-24T22:59:53.405Z,24.91
2018-07-24T23:02:24.197Z,24.83
2018-07-24T23:04:53.877Z,24.75
2018-07-24T23:07:24.035Z,24.63
2018-07-24T23:09:54.132Z,24.53
2018-07-24T23:12:26.553Z,24.39
2018-07-24T23:14:56.951Z,24.38
2018-07-24T23:17:27.270Z,24.37
2018-07-24T23:19:57.763Z,24.29
2018-07-24T23:22:27.853Z,24.33
2018-07-24T23:24:57.877Z,24.31
2018-07-24T23:27:27.987Z,24.23
2018-07-24T23:29:59.825Z,24.31
2018-07-24T23:32:30.073Z,24.27
2018-07-24T23:35:00.807Z,24.25
2018-07-24T23:37:30.989Z,24.18
2018-07-24T23:40:02.092Z,24.17
2018-07-24T23:42:32.353Z,24.21
2018-07-24T23:45:07.735Z,24.18
2018-07-24T23:47:38.042Z,24.05
2018-07-24T23:50:09.681Z,23.96
2018-07-24T23:52:40.294Z,23.98
2018-07-24T23:55:11.980Z,23.88
2018-07-24T23:57:43.067Z,23.75
